createdAt,value
2022-11-13T00:00:31.699Z,13.7
2022-11-13T00:01:48.832Z,13.7
2022-11-13T00:03:05.691Z,13.7
2022-11-13T00:04:22.719Z,13.6
2022-11-13T00:05:39.672Z,13.5
2022-11-13T00:06:59.266Z,13.5
2022-11-13T00:08:13.677Z,13.5
2022-11-13T00:09:30.681Z,13.4
2022-11-13T00:10:47.703Z,13.3
2022-11-13T00:12:04.682Z,13.2
2022-11-13T00:13:25.005Z,13.2
2022-11-13T00:14:38.715Z,13.2
2022-11-13T00:15:55.687Z,13.3
2022-11-13T00:17:12.804Z,13.2
2022-11-13T00:18:29.943Z,13.1
2022-11-13T00:19:46.691Z,13.1
2022-11-13T00:21:03.711Z,13
2022-11-13T00:22:20.763Z,12.9
2022-11-13T00:23:37.764Z,12.8
2022-11-13T00:24:54.699Z,12.7
2022-11-13T00:26:11.697Z,12.8
2022-11-13T00:27:28.709Z,12.8
2022-11-13T00:28:45.765Z,12.9
2022-11-13T00:30:03.174Z,13
2022-11-13T00:31:20.708Z,13.1
2022-11-13T00:32:37.836Z,13.1
2022-11-13T00:34:26.319Z,13.3
2022-11-13T00:35:11.727Z,13.4
2022-11-13T00:36:28.715Z,13.3
2022-11-13T00:37:45.719Z,13.2
2022-11-13T00:39:02.740Z,13.1
2022-11-13T00:40:19.738Z,13
2022-11-13T00:41:36.718Z,12.9
2022-11-13T00:42:53.726Z,12.9
2022-11-13T00:44:11.801Z,12.8
2022-11-13T00:45:28.722Z,12.8
2022-11-13T00:46:45.764Z,12.8
2022-11-13T00:48:02.889Z,12.6
2022-11-13T00:49:19.731Z,12.6
2022-11-13T00:50:36.738Z,12.5
2022-11-13T00:51:53.788Z,12.3
2022-11-13T00:53:15.332Z,12.3
2022-11-13T00:54:27.754Z,12.3
2022-11-13T00:55:44.752Z,12.3
2022-11-13T00:57:01.812Z,12.4
2022-11-13T00:58:18.748Z,12.5
2022-11-13T00:59:35.761Z,12.6
2022-11-13T01:00:52.762Z,12.7
2022-11-13T01:02:09.784Z,12.7
2022-11-13T01:03:26.877Z,12.5
2022-11-13T01:04:43.758Z,12.5
2022-11-13T01:06:00.813Z,12.4
2022-11-13T01:07:17.849Z,12.3
2022-11-13T01:08:34.758Z,12.4
2022-11-13T01:09:51.762Z,12.5
2022-11-13T01:11:08.760Z,12.6
2022-11-13T01:12:26.409Z,12.6
2022-11-13T01:13:43.760Z,12.6
2022-11-13T01:15:00.938Z,12.5
2022-11-13T01:16:17.794Z,12.6
2022-11-13T01:17:34.837Z,12.7
2022-11-13T01:18:51.961Z,12.8
2022-11-13T01:20:08.777Z,13
2022-11-13T01:21:25.787Z,13
2022-11-13T01:22:42.847Z,13
2022-11-13T01:23:59.796Z,12.9
2022-11-13T01:25:16.795Z,12.9
2022-11-13T01:26:33.796Z,13
2022-11-13T01:27:50.810Z,13
2022-11-13T01:29:07.793Z,13
2022-11-13T01:30:24.815Z,12.9
2022-11-13T01:31:41.817Z,12.8
2022-11-13T01:32:58.835Z,12.8
2022-11-13T01:34:16.063Z,12.8
2022-11-13T01:35:32.859Z,12.8
2022-11-13T01:36:49.798Z,12.9
2022-11-13T01:38:06.816Z,12.8
2022-11-13T01:39:23.801Z,12.8
2022-11-13T01:40:40.847Z,12.6
2022-11-13T01:41:57.906Z,12.4
2022-11-13T01:45:06.836Z,12.1
2022-11-13T01:46:23.830Z,11.9
2022-11-13T01:47:40.852Z,11.8
2022-11-13T01:48:57.821Z,11.8
2022-11-13T01:50:14.952Z,11.8
2022-11-13T01:51:31.828Z,11.8
2022-11-13T01:52:48.860Z,11.9
2022-11-13T01:54:05.840Z,12
2022-11-13T01:55:22.941Z,12
2022-11-13T01:56:39.865Z,12.1
2022-11-13T01:57:56.903Z,12.2
2022-11-13T01:59:13.840Z,12.3
2022-11-13T02:00:30.860Z,12.3
2022-11-13T02:01:47.873Z,12.2
2022-11-13T02:03:04.908Z,12.1
2022-11-13T02:04:21.854Z,12
2022-11-13T02:05:38.985Z,11.9
2022-11-13T02:06:55.928Z,11.8
2022-11-13T02:08:12.935Z,11.9
2022-11-13T02:09:29.881Z,11.8
2022-11-13T02:10:46.856Z,11.7
2022-11-13T02:12:03.856Z,11.7
2022-11-13T02:13:20.938Z,11.7
2022-11-13T02:14:37.894Z,11.7
2022-11-13T02:15:54.886Z,11.8
2022-11-13T02:17:11.897Z,11.8
2022-11-13T02:18:29.281Z,11.7
2022-11-13T02:19:45.865Z,11.6
2022-11-13T02:21:02.983Z,11.6
2022-11-13T02:22:19.874Z,11.5
2022-11-13T02:23:36.906Z,11.5
2022-11-13T02:24:54.978Z,11.4
2022-11-13T02:26:10.865Z,11.5
2022-11-13T02:27:27.879Z,11.6
2022-11-13T02:28:44.921Z,11.7
2022-11-13T02:30:02.033Z,11.7
2022-11-13T02:31:18.897Z,11.8
2022-11-13T02:32:35.900Z,11.8
2022-11-13T02:33:52.915Z,11.9
2022-11-13T02:35:09.884Z,11.9
2022-11-13T02:36:27.029Z,11.9
2022-11-13T02:37:43.915Z,11.9
2022-11-13T02:39:00.955Z,12.1
2022-11-13T02:40:17.930Z,12.1
2022-11-13T02:41:35.113Z,12.1
2022-11-13T02:42:51.933Z,12
2022-11-13T02:44:08.894Z,11.9
2022-11-13T02:45:25.893Z,11.9
2022-11-13T02:46:43.025Z,11.9
2022-11-13T02:47:59.899Z,12
2022-11-13T02:49:16.910Z,12.2
2022-11-13T02:50:33.916Z,12.3
2022-11-13T02:51:51.062Z,12.4
2022-11-13T02:53:07.942Z,12.6
2022-11-13T02:54:24.924Z,12.6
2022-11-13T02:55:41.927Z,12.6
2022-11-13T02:56:58.929Z,12.5
2022-11-13T02:58:15.950Z,12.5
2022-11-13T02:59:32.929Z,12.6
2022-11-13T03:00:49.933Z,12.5
2022-11-13T03:02:07.298Z,12.3
2022-11-13T03:03:48.041Z,12.3
2022-11-13T03:05:10.049Z,12.1
2022-11-13T03:05:57.936Z,12
2022-11-13T03:07:15.091Z,12.1
2022-11-13T03:08:32.556Z,12
2022-11-13T03:09:48.969Z,12.1
2022-11-13T03:11:05.944Z,12.2
2022-11-13T03:12:22.938Z,12.3
2022-11-13T03:13:39.941Z,12.3
2022-11-13T03:14:56.980Z,12.4
2022-11-13T03:16:13.962Z,12.4
2022-11-13T03:17:30.951Z,12.5
2022-11-13T03:18:47.947Z,12.6
2022-11-13T03:20:05.023Z,12.5
2022-11-13T03:21:21.943Z,12.5
2022-11-13T03:22:39.110Z,12.5
2022-11-13T03:23:55.949Z,12.5
2022-11-13T03:25:12.983Z,12.6
2022-11-13T03:26:29.955Z,12.6
2022-11-13T03:27:46.971Z,12.5
2022-11-13T03:29:03.964Z,12.2
2022-11-13T03:30:21.001Z,12.1
2022-11-13T03:31:37.991Z,12
2022-11-13T03:32:54.963Z,11.9
2022-11-13T03:34:11.969Z,11.9
2022-11-13T03:35:31.310Z,12
2022-11-13T03:36:46.013Z,12
2022-11-13T03:38:03.107Z,12.1
2022-11-13T03:39:19.973Z,12.2
2022-11-13T03:40:37.027Z,12.2
2022-11-13T03:41:53.975Z,12.4
2022-11-13T03:43:10.988Z,12.5
2022-11-13T03:44:27.998Z,12.7
2022-11-13T03:45:45.016Z,13
2022-11-13T03:47:01.997Z,13
2022-11-13T03:48:18.984Z,12.9
2022-11-13T03:49:36.009Z,12.8
2022-11-13T03:50:53.055Z,12.6
2022-11-13T03:52:10.008Z,12.5
2022-11-13T03:53:27.158Z,12.3
2022-11-13T03:54:44.001Z,12.3
2022-11-13T03:56:01.072Z,12.2
2022-11-13T03:57:17.998Z,12.3
2022-11-13T03:58:38.536Z,12.3
2022-11-13T03:59:52.030Z,12.3
2022-11-13T04:01:09.006Z,12.4
2022-11-13T04:02:26.003Z,12.4
2022-11-13T04:03:43.116Z,12.3
2022-11-13T04:05:00.049Z,12.3
2022-11-13T04:06:17.027Z,12.3
2022-11-13T04:07:34.030Z,12.2
2022-11-13T04:08:51.180Z,12.2
2022-11-13T04:10:08.072Z,12.3
2022-11-13T04:11:25.020Z,12.4
2022-11-13T04:12:42.045Z,12.5
2022-11-13T04:13:59.056Z,12.6
2022-11-13T04:15:16.092Z,12.7
2022-11-13T04:16:33.067Z,12.7
2022-11-13T04:17:50.029Z,12.8
2022-11-13T04:19:07.061Z,12.8
2022-11-13T04:20:24.069Z,12.7
2022-11-13T04:21:41.042Z,12.7
2022-11-13T04:22:58.080Z,12.7
2022-11-13T04:24:15.189Z,12.7
2022-11-13T04:25:32.046Z,12.8
2022-11-13T04:26:49.043Z,12.9
2022-11-13T04:28:06.050Z,12.9
2022-11-13T04:29:23.067Z,12.8
2022-11-13T04:30:40.115Z,12.8
2022-11-13T04:31:57.062Z,12.7
2022-11-13T04:33:14.043Z,12.6
2022-11-13T04:34:31.083Z,12.5
2022-11-13T04:35:48.053Z,12.4
2022-11-13T04:37:05.059Z,12.4
2022-11-13T04:38:22.075Z,12.4
2022-11-13T04:39:39.218Z,12.4
2022-11-13T04:40:56.063Z,12.4
2022-11-13T04:42:13.064Z,12.3
2022-11-13T04:43:30.066Z,12.3
2022-11-13T04:44:47.104Z,12.2
2022-11-13T04:46:04.097Z,12.1
2022-11-13T04:47:21.074Z,12
2022-11-13T04:48:38.074Z,11.9
2022-11-13T04:49:55.075Z,11.8
2022-11-13T04:51:12.105Z,11.8
2022-11-13T04:52:29.088Z,11.9
2022-11-13T04:53:46.084Z,12
2022-11-13T04:55:03.304Z,12.1
2022-11-13T04:56:20.122Z,12.1
2022-11-13T04:57:37.093Z,12.1
2022-11-13T04:58:54.097Z,12.1
2022-11-13T05:00:11.100Z,12
2022-11-13T05:01:28.170Z,12
2022-11-13T05:02:45.092Z,12.1
2022-11-13T05:04:02.107Z,12.1
2022-11-13T05:05:19.101Z,12.1
2022-11-13T05:06:36.240Z,12
2022-11-13T05:07:53.151Z,12.1
2022-11-13T05:09:10.110Z,12.2
2022-11-13T05:10:27.220Z,12.3
2022-11-13T05:11:44.173Z,12.4
2022-11-13T05:13:01.266Z,12.4
2022-11-13T05:14:18.171Z,12.5
2022-11-13T05:15:35.119Z,12.6
2022-11-13T05:16:52.109Z,12.7
2022-11-13T05:18:09.146Z,12.5
2022-11-13T05:19:26.120Z,12.3
2022-11-13T05:20:43.125Z,12.3
2022-11-13T05:22:00.124Z,12.2
2022-11-13T05:23:17.202Z,12.3
2022-11-13T05:24:34.135Z,12.2
2022-11-13T05:25:51.248Z,12.3
2022-11-13T05:27:10.450Z,12.4
2022-11-13T05:28:25.370Z,12.3
2022-11-13T05:29:42.161Z,12.2
2022-11-13T05:30:59.131Z,12.3
2022-11-13T05:32:16.134Z,12.2
2022-11-13T05:33:33.251Z,12.2
2022-11-13T05:34:50.141Z,12.2
2022-11-13T05:36:07.151Z,12.3
2022-11-13T05:37:24.141Z,12.3
2022-11-13T05:38:41.199Z,12.3
2022-11-13T05:39:58.179Z,12.3
2022-11-13T05:41:15.292Z,12.4
2022-11-13T05:42:32.158Z,12.4
2022-11-13T05:43:49.150Z,12.3
2022-11-13T05:45:06.224Z,12.2
2022-11-13T05:46:23.148Z,12.1
2022-11-13T05:47:40.153Z,12.1
2022-11-13T05:48:57.153Z,12
2022-11-13T05:50:14.222Z,12.1
2022-11-13T05:51:31.228Z,12.1
2022-11-13T05:52:48.195Z,12.2
2022-11-13T05:54:05.165Z,12.2
2022-11-13T05:55:23.420Z,12.3
2022-11-13T05:56:39.278Z,12.3
2022-11-13T05:57:56.188Z,12.4
2022-11-13T05:59:13.364Z,12.5
2022-11-13T06:00:30.215Z,12.5
2022-11-13T06:01:47.204Z,12.4
2022-11-13T06:03:04.175Z,12.4
2022-11-13T06:04:21.177Z,12.4
2022-11-13T06:05:38.285Z,12.4
2022-11-13T06:06:55.280Z,12.5
2022-11-13T06:08:12.185Z,12.6
2022-11-13T06:09:29.189Z,12.6
2022-11-13T06:10:46.188Z,12.4
2022-11-13T06:12:03.399Z,12.3
2022-11-13T06:13:20.202Z,12.2
2022-11-13T06:14:37.207Z,12.1
2022-11-13T06:15:54.222Z,12.1
2022-11-13T06:17:11.280Z,12.2
2022-11-13T06:18:28.624Z,12.2
2022-11-13T06:19:45.199Z,12.2
2022-11-13T06:21:02.244Z,12.1
2022-11-13T06:22:19.195Z,12.2
2022-11-13T06:23:36.233Z,12.2
2022-11-13T06:24:53.207Z,12.2
2022-11-13T06:26:10.202Z,12.3
2022-11-13T06:27:27.326Z,12.3
2022-11-13T06:28:44.655Z,12.3
2022-11-13T06:30:02.504Z,12.2
2022-11-13T06:31:19.211Z,12.1
2022-11-13T06:32:36.210Z,12
2022-11-13T06:33:53.247Z,11.9
2022-11-13T06:35:10.288Z,11.8
2022-11-13T06:36:27.245Z,11.8
2022-11-13T06:37:44.224Z,11.9
2022-11-13T06:39:01.333Z,12
2022-11-13T06:40:18.314Z,12
2022-11-13T06:41:35.234Z,12
2022-11-13T06:42:52.857Z,12
2022-11-13T06:44:10.222Z,11.9
2022-11-13T06:45:27.262Z,11.9
2022-11-13T06:46:44.225Z,11.9
2022-11-13T06:48:01.288Z,11.9
2022-11-13T06:49:18.240Z,11.9
2022-11-13T06:50:35.236Z,11.9
2022-11-13T06:51:52.268Z,11.8
2022-11-13T06:53:09.267Z,11.6
2022-11-13T06:54:26.277Z,11.6
2022-11-13T06:55:44.256Z,11.5
2022-11-13T06:57:01.301Z,11.5
2022-11-13T06:58:19.415Z,11.4
2022-11-13T06:59:36.268Z,11.4
2022-11-13T07:00:53.333Z,11.4
2022-11-13T07:02:10.286Z,11.3
2022-11-13T07:03:27.342Z,11.3
2022-11-13T07:04:44.260Z,11.4
2022-11-13T07:06:01.752Z,11.4
2022-11-13T07:07:19.497Z,11.5
2022-11-13T07:08:36.299Z,11.4
2022-11-13T07:09:53.269Z,11.4
2022-11-13T07:11:11.616Z,11.3
2022-11-13T07:12:29.498Z,11.3
2022-11-13T07:13:46.395Z,11.1
2022-11-13T07:15:03.554Z,11.1
2022-11-13T07:16:21.418Z,11
2022-11-13T07:17:38.409Z,11
2022-11-13T07:18:55.290Z,11
2022-11-13T07:20:12.319Z,11
2022-11-13T07:21:29.284Z,11
2022-11-13T07:22:46.288Z,10.9
2022-11-13T07:24:03.320Z,10.8
2022-11-13T07:25:20.802Z,10.8
2022-11-13T07:26:38.291Z,10.7
2022-11-13T07:27:55.294Z,10.8
2022-11-13T07:29:13.495Z,10.9
2022-11-13T07:30:31.333Z,10.9
2022-11-13T07:31:48.311Z,10.9
2022-11-13T07:33:05.333Z,10.8
2022-11-13T07:34:22.333Z,10.8
2022-11-13T07:35:40.467Z,10.9
2022-11-13T07:36:58.302Z,11
2022-11-13T07:38:15.445Z,11.1
2022-11-13T07:39:32.302Z,11.1
2022-11-13T07:40:49.829Z,11.1
2022-11-13T07:42:07.344Z,10.9
2022-11-13T07:43:25.462Z,10.8
2022-11-13T07:44:57.853Z,10.8
2022-11-13T07:45:59.351Z,10.9
2022-11-13T07:47:16.320Z,10.8
2022-11-13T07:48:33.321Z,10.9
2022-11-13T07:49:50.320Z,11.1
2022-11-13T07:51:07.565Z,11.3
2022-11-13T07:52:25.321Z,11.3
2022-11-13T07:53:42.486Z,11.3
2022-11-13T07:54:59.333Z,11.2
2022-11-13T07:56:21.833Z,11.1
2022-11-13T07:57:34.337Z,11.2
2022-11-13T07:58:51.344Z,11.2
2022-11-13T08:00:09.546Z,11.2
2022-11-13T08:01:26.401Z,11.3
2022-11-13T08:02:43.428Z,11.4
2022-11-13T08:04:00.567Z,11.3
2022-11-13T08:05:17.340Z,11.4
2022-11-13T08:06:34.370Z,11.4
2022-11-13T08:07:51.687Z,11.4
2022-11-13T08:09:08.346Z,11.4
2022-11-13T08:10:25.344Z,11.5
2022-11-13T08:11:42.463Z,11.6
2022-11-13T08:12:59.346Z,11.7
2022-11-13T08:14:16.359Z,11.7
2022-11-13T08:15:33.505Z,11.7
2022-11-13T08:16:50.442Z,11.6
2022-11-13T08:18:07.365Z,11.4
2022-11-13T08:19:24.371Z,11.4
2022-11-13T08:20:41.367Z,11.3
2022-11-13T08:21:58.385Z,11.4
2022-11-13T08:23:15.360Z,11.5
2022-11-13T08:24:32.373Z,11.5
2022-11-13T08:25:49.399Z,11.5
2022-11-13T08:27:06.378Z,11.5
2022-11-13T08:28:23.766Z,11.5
2022-11-13T08:29:40.382Z,11.6
2022-11-13T08:30:58.541Z,11.8
2022-11-13T08:32:15.584Z,11.8
2022-11-13T08:33:32.377Z,11.8
2022-11-13T08:34:49.463Z,11.8
2022-11-13T08:36:06.423Z,11.7
2022-11-13T08:37:23.388Z,11.7
2022-11-13T08:38:40.388Z,11.7
2022-11-13T08:39:57.395Z,11.7
2022-11-13T08:41:14.412Z,11.7
2022-11-13T08:42:31.432Z,11.7
2022-11-13T08:43:48.446Z,11.7
2022-11-13T08:45:05.442Z,11.7
2022-11-13T08:46:22.549Z,11.7
2022-11-13T08:47:39.492Z,11.7
2022-11-13T08:48:56.446Z,11.9
2022-11-13T08:50:13.407Z,12
2022-11-13T08:51:30.424Z,12.2
2022-11-13T08:52:47.437Z,12.3
2022-11-13T08:54:04.435Z,12.5
2022-11-13T08:55:21.425Z,12.4
2022-11-13T08:56:38.423Z,12.3
2022-11-13T08:57:55.471Z,12.1
2022-11-13T08:59:12.455Z,11.9
2022-11-13T09:00:29.450Z,11.8
2022-11-13T09:01:46.635Z,11.8
2022-11-13T09:03:03.436Z,11.7
2022-11-13T09:04:21.925Z,11.8
2022-11-13T09:05:40.046Z,11.8
2022-11-13T09:06:58.479Z,11.9
2022-11-13T09:08:15.427Z,12
2022-11-13T09:09:32.444Z,12.1
2022-11-13T09:10:49.524Z,12.1
2022-11-13T09:12:06.440Z,12
2022-11-13T09:13:23.438Z,12
2022-11-13T09:14:40.439Z,12
2022-11-13T09:15:57.846Z,12
2022-11-13T09:17:15.586Z,11.9
2022-11-13T09:18:32.455Z,11.8
2022-11-13T09:19:49.448Z,11.8
2022-11-13T09:21:06.493Z,11.9
2022-11-13T09:22:23.449Z,11.9
2022-11-13T09:23:40.503Z,11.9
2022-11-13T09:24:57.453Z,12
2022-11-13T09:26:15.002Z,11.9
2022-11-13T09:27:32.492Z,11.7
2022-11-13T09:28:49.467Z,11.7
2022-11-13T09:30:06.784Z,11.7
2022-11-13T09:31:23.555Z,11.8
2022-11-13T09:32:40.580Z,11.8
2022-11-13T09:33:57.463Z,11.9
2022-11-13T09:35:14.470Z,11.9
2022-11-13T09:36:31.504Z,11.8
2022-11-13T09:37:48.472Z,11.8
2022-11-13T09:39:05.633Z,11.9
2022-11-13T09:40:22.505Z,12.1
2022-11-13T09:41:40.006Z,12.4
2022-11-13T09:42:57.555Z,12.4
2022-11-13T09:44:15.512Z,12.4
2022-11-13T09:45:32.483Z,12.5
2022-11-13T09:46:49.651Z,12.5
2022-11-13T09:48:06.609Z,12.6
2022-11-13T09:49:23.481Z,12.7
2022-11-13T09:50:40.482Z,12.6
2022-11-13T09:51:57.536Z,12.5
2022-11-13T09:53:14.484Z,12.4
2022-11-13T09:54:31.496Z,12.3
2022-11-13T09:55:48.495Z,12.3
2022-11-13T09:57:05.517Z,12.3
2022-11-13T09:58:22.495Z,12.2
2022-11-13T09:59:39.537Z,12.3
2022-11-13T10:02:15.730Z,12.4
2022-11-13T10:03:54.534Z,12.5
2022-11-13T10:04:51.826Z,12.6
2022-11-13T10:06:09.868Z,12.5
2022-11-13T10:07:29.000Z,12.6
2022-11-13T10:08:47.032Z,12.6
2022-11-13T10:10:04.985Z,12.6
2022-11-13T10:11:22.726Z,12.4
2022-11-13T10:14:01.528Z,12.3
2022-11-13T10:15:20.014Z,12.3
2022-11-13T10:16:38.852Z,12.3
2022-11-13T10:17:57.180Z,12.5
2022-11-13T10:19:16.208Z,12.6
2022-11-13T10:20:33.669Z,12.7
2022-11-13T10:21:55.017Z,12.8
2022-11-13T10:23:10.148Z,12.8
2022-11-13T10:24:31.820Z,12.7
2022-11-13T10:25:50.040Z,12.8
2022-11-13T10:27:09.042Z,12.8
2022-11-13T10:29:48.948Z,12.4
2022-11-13T10:31:03.788Z,12.4
2022-11-13T10:32:22.013Z,12.4
2022-11-13T10:33:41.404Z,12.3
2022-11-13T10:35:00.064Z,12.3
2022-11-13T10:36:17.746Z,12.4
2022-11-13T10:37:35.866Z,12.3
2022-11-13T10:38:57.129Z,12.2
2022-11-13T10:40:16.245Z,12.2
2022-11-13T10:41:35.322Z,12.3
2022-11-13T10:42:54.224Z,12.4
2022-11-13T10:44:15.346Z,12.5
2022-11-13T10:45:34.224Z,12.7
2022-11-13T10:46:52.866Z,12.9
2022-11-13T10:48:10.956Z,13
2022-11-13T10:49:29.639Z,13.1
2022-11-13T10:50:48.449Z,13
2022-11-13T10:52:10.047Z,12.8
2022-11-13T10:53:24.450Z,12.7
2022-11-13T10:54:42.775Z,12.6
2022-11-13T10:56:00.970Z,12.6
2022-11-13T10:57:18.800Z,12.6
2022-11-13T10:58:37.202Z,12.7
2022-11-13T10:59:58.350Z,12.8
2022-11-13T11:01:18.346Z,12.9
2022-11-13T11:02:39.027Z,13
2022-11-13T11:03:56.965Z,13.2
2022-11-13T11:05:15.714Z,13.1
2022-11-13T11:07:04.951Z,12.8
2022-11-13T11:07:55.077Z,12.5
2022-11-13T11:09:14.172Z,12.4
2022-11-13T11:10:35.657Z,12.4
2022-11-13T11:11:54.934Z,12.8
2022-11-13T11:13:13.913Z,13
2022-11-13T11:14:32.692Z,13.1
2022-11-13T11:15:50.873Z,13.2
2022-11-13T11:17:09.137Z,13.2
2022-11-13T11:18:27.639Z,13.3
2022-11-13T11:19:46.219Z,13.3
2022-11-13T11:21:07.513Z,13.2
2022-11-13T11:22:25.850Z,13
2022-11-13T11:23:49.520Z,12.8
2022-11-13T11:26:25.630Z,12.8
2022-11-13T11:27:44.001Z,12.8
2022-11-13T11:29:02.072Z,12.6
2022-11-13T11:30:20.177Z,12.5
2022-11-13T11:31:39.097Z,12.4
2022-11-13T11:32:57.121Z,12.4
2022-11-13T11:34:15.180Z,12.3
2022-11-13T11:35:34.375Z,12.4
2022-11-13T11:36:52.918Z,12.3
2022-11-13T11:38:14.152Z,12.2
2022-11-13T11:39:32.202Z,12.2
2022-11-13T11:40:50.152Z,12.2
2022-11-13T11:42:08.447Z,12.4
2022-11-13T11:43:27.110Z,12.5
2022-11-13T11:44:45.297Z,12.6
2022-11-13T11:46:04.096Z,12.6
2022-11-13T11:47:23.232Z,12.5
2022-11-13T11:48:41.233Z,12.3
2022-11-13T11:50:01.685Z,12.2
2022-11-13T11:51:19.757Z,12.2
2022-11-13T11:52:38.034Z,12.3
2022-11-13T11:53:56.245Z,12.4
2022-11-13T11:55:15.020Z,12.6
2022-11-13T11:57:51.881Z,12.7
2022-11-13T11:59:12.947Z,12.7
2022-11-13T12:00:34.143Z,12.8
2022-11-13T12:01:58.288Z,12.9
2022-11-13T12:03:18.141Z,12.8
2022-11-13T12:04:36.284Z,12.7
2022-11-13T12:05:56.445Z,12.5
2022-11-13T12:07:14.066Z,12.5
2022-11-13T12:09:56.050Z,12.7
2022-11-13T12:11:17.235Z,12.8
2022-11-13T12:12:35.220Z,12.9
2022-11-13T12:13:53.814Z,12.9
2022-11-13T12:15:13.032Z,12.9
2022-11-13T12:16:31.012Z,12.9
2022-11-13T12:17:49.368Z,12.9
2022-11-13T12:19:08.071Z,12.7
2022-11-13T12:20:27.011Z,12.5
2022-11-13T12:21:45.675Z,12.4
2022-11-13T12:23:04.214Z,12.5
2022-11-13T12:24:22.311Z,12.5
2022-11-13T12:25:41.328Z,12.4
2022-11-13T12:26:59.019Z,12.4
2022-11-13T12:28:17.216Z,12.3
2022-11-13T12:29:36.229Z,12.1
2022-11-13T12:30:57.269Z,11.9
2022-11-13T12:32:14.131Z,11.8
2022-11-13T12:33:32.099Z,11.8
2022-11-13T12:34:50.366Z,12
2022-11-13T12:36:08.391Z,12.1
2022-11-13T12:37:26.087Z,12.2
2022-11-13T12:38:44.082Z,12.2
2022-11-13T12:40:02.003Z,12.3
2022-11-13T12:41:19.988Z,12.3
2022-11-13T12:42:38.341Z,12.2
2022-11-13T12:43:57.203Z,12.1
2022-11-13T12:45:17.827Z,12
2022-11-13T12:46:36.110Z,11.9
2022-11-13T12:47:54.006Z,11.9
2022-11-13T12:49:12.498Z,11.8
2022-11-13T12:50:33.217Z,11.6
2022-11-13T12:51:52.230Z,11.4
2022-11-13T12:53:11.054Z,11.4
2022-11-13T12:54:29.049Z,11.5
2022-11-13T12:55:47.012Z,11.7
2022-11-13T12:57:04.267Z,11.8
2022-11-13T12:58:22.060Z,11.9
2022-11-13T12:59:39.958Z,12
2022-11-13T13:00:59.305Z,11.9
2022-11-13T13:02:17.083Z,11.7
2022-11-13T13:03:35.780Z,11.6
2022-11-13T13:04:57.521Z,11.6
2022-11-13T13:06:15.848Z,11.6
2022-11-13T13:07:34.251Z,11.6
2022-11-13T13:08:55.047Z,11.5
2022-11-13T13:10:18.816Z,11.5
2022-11-13T13:11:35.799Z,11.6
2022-11-13T13:12:52.938Z,11.9
2022-11-13T13:14:09.776Z,12
2022-11-13T13:15:26.903Z,12.2
2022-11-13T13:16:43.770Z,12.4
2022-11-13T13:18:00.818Z,12.6
2022-11-13T13:19:18.068Z,12.7
2022-11-13T13:20:34.861Z,12.8
2022-11-13T13:21:51.998Z,12.7
2022-11-13T13:23:08.910Z,12.7
2022-11-13T13:24:25.791Z,12.6
2022-11-13T13:25:42.845Z,12.5
2022-11-13T13:26:59.814Z,12.5
2022-11-13T13:28:16.927Z,12.5
2022-11-13T13:29:33.829Z,12.6
2022-11-13T13:30:50.805Z,12.7
2022-11-13T13:32:11.669Z,12.9
2022-11-13T13:33:24.824Z,13
2022-11-13T13:34:41.885Z,13.1
2022-11-13T13:35:58.835Z,13.2
2022-11-13T13:37:15.806Z,13.4
2022-11-13T13:38:33.134Z,13.4
2022-11-13T13:39:49.824Z,13.4
2022-11-13T13:41:06.862Z,13.3
2022-11-13T13:42:23.811Z,13.2
2022-11-13T13:43:40.948Z,13.1
2022-11-13T13:44:57.843Z,13
2022-11-13T13:46:14.826Z,12.9
2022-11-13T13:47:31.853Z,12.8
2022-11-13T13:48:48.824Z,12.7
2022-11-13T13:50:06.099Z,12.8
2022-11-13T13:51:22.857Z,13
2022-11-13T13:52:39.873Z,13.2
2022-11-13T13:53:57.007Z,13.4
2022-11-13T13:55:13.831Z,13.4
2022-11-13T13:56:30.884Z,13.4
2022-11-13T13:57:47.824Z,13.3
2022-11-13T13:59:05.040Z,13.3
2022-11-13T14:00:21.853Z,13.3
2022-11-13T14:01:38.925Z,13.4
2022-11-13T14:02:55.856Z,13.4
2022-11-13T14:04:12.865Z,13.1
2022-11-13T14:05:29.848Z,13
2022-11-13T14:06:46.913Z,12.9
2022-11-13T14:08:03.899Z,12.8
2022-11-13T14:09:20.857Z,12.8
2022-11-13T14:10:37.897Z,12.8
2022-11-13T14:11:54.862Z,12.7
2022-11-13T14:13:11.909Z,12.8
2022-11-13T14:14:29.278Z,12.8
2022-11-13T14:15:46.898Z,12.8
2022-11-13T14:17:04.765Z,13
2022-11-13T14:18:21.899Z,13.1
2022-11-13T14:19:38.889Z,13.2
2022-11-13T14:20:55.874Z,13.1
2022-11-13T14:22:12.862Z,13.2
2022-11-13T14:23:29.897Z,13.2
2022-11-13T14:24:46.947Z,13.2
2022-11-13T14:26:03.927Z,13.2
2022-11-13T14:27:20.867Z,13.2
2022-11-13T14:28:37.870Z,13.3
2022-11-13T14:29:55.000Z,13.4
2022-11-13T14:31:12.035Z,13.5
2022-11-13T14:32:28.878Z,13.4
2022-11-13T14:33:45.911Z,13.4
2022-11-13T14:35:02.977Z,13.3
2022-11-13T14:36:19.943Z,13.1
2022-11-13T14:37:36.933Z,12.8
2022-11-13T14:38:53.913Z,12.6
2022-11-13T14:40:10.981Z,12.4
2022-11-13T14:41:27.928Z,12.2
2022-11-13T14:42:44.921Z,12.1
2022-11-13T14:44:02.066Z,12
2022-11-13T14:45:19.035Z,12
2022-11-13T14:46:35.931Z,12.1
2022-11-13T14:47:52.900Z,12.1
2022-11-13T14:49:09.952Z,12.2
2022-11-13T14:50:26.917Z,12.3
2022-11-13T14:51:43.926Z,12.3
2022-11-13T14:53:00.922Z,12.3
2022-11-13T14:54:18.079Z,12.3
2022-11-13T14:55:34.947Z,12.4
2022-11-13T14:56:52.069Z,12.5
2022-11-13T14:58:08.921Z,12.5
2022-11-13T14:59:25.945Z,12.5
2022-11-13T15:00:43.052Z,12.4
2022-11-13T15:01:59.975Z,12.4
2022-11-13T15:03:16.964Z,12.2
2022-11-13T15:04:37.901Z,12.2
2022-11-13T15:05:50.953Z,12.1
2022-11-13T15:07:07.985Z,12
2022-11-13T15:08:24.961Z,12
2022-11-13T15:09:42.061Z,12
2022-11-13T15:10:58.929Z,11.9
2022-11-13T15:12:16.011Z,11.8
2022-11-13T15:13:33.013Z,11.8
2022-11-13T15:14:50.261Z,11.8
2022-11-13T15:16:08.067Z,11.8
2022-11-13T15:17:24.977Z,11.8
2022-11-13T15:18:42.006Z,11.8
2022-11-13T15:19:58.995Z,11.7
2022-11-13T15:21:15.959Z,11.7
2022-11-13T15:22:32.947Z,11.7
2022-11-13T15:23:49.995Z,11.7
2022-11-13T15:25:07.040Z,11.7
2022-11-13T15:26:23.959Z,11.6
2022-11-13T15:27:43.228Z,11.6
2022-11-13T15:28:57.966Z,11.5
2022-11-13T15:30:15.012Z,11.5
2022-11-13T15:31:32.085Z,11.5
2022-11-13T15:32:48.962Z,11.6
2022-11-13T15:34:06.005Z,11.8
2022-11-13T15:35:23.123Z,11.8
2022-11-13T15:36:39.967Z,11.9
2022-11-13T15:37:56.981Z,11.9
2022-11-13T15:39:22.890Z,12
2022-11-13T15:40:30.975Z,12
2022-11-13T15:41:48.043Z,11.9
2022-11-13T15:43:05.000Z,11.8
2022-11-13T15:44:22.023Z,11.8
2022-11-13T15:45:43.933Z,11.7
2022-11-13T15:46:56.106Z,11.6
2022-11-13T15:48:13.037Z,11.4
2022-11-13T15:49:30.028Z,11.4
2022-11-13T15:50:47.028Z,11.5
2022-11-13T15:52:04.073Z,11.6
2022-11-13T15:53:21.000Z,11.7
2022-11-13T15:54:38.017Z,11.7
2022-11-13T15:55:55.021Z,11.7
2022-11-13T15:57:12.087Z,11.6
2022-11-13T15:58:33.411Z,11.5
2022-11-13T15:59:45.997Z,11.5
2022-11-13T16:01:03.103Z,11.4
2022-11-13T16:02:20.144Z,11.5
2022-11-13T16:03:37.037Z,11.5
2022-11-13T16:04:56.816Z,11.5
2022-11-13T16:06:11.105Z,11.5
2022-11-13T16:07:28.069Z,11.5
2022-11-13T16:08:45.018Z,11.6
2022-11-13T16:10:02.038Z,11.7
2022-11-13T16:11:19.072Z,11.7
2022-11-13T16:12:36.049Z,11.8
2022-11-13T16:13:53.053Z,11.8
2022-11-13T16:15:10.044Z,11.9
2022-11-13T16:16:27.060Z,11.9
2022-11-13T16:17:44.208Z,12
2022-11-13T16:19:01.042Z,12
2022-11-13T16:20:18.052Z,12
2022-11-13T16:21:35.111Z,11.9
2022-11-13T16:22:53.080Z,11.8
2022-11-13T16:24:10.097Z,11.7
2022-11-13T16:25:27.156Z,11.6
2022-11-13T16:26:44.084Z,11.5
2022-11-13T16:28:01.050Z,11.3
2022-11-13T16:29:18.273Z,11.1
2022-11-13T16:30:35.098Z,11
2022-11-13T16:31:52.085Z,10.9
2022-11-13T16:33:09.185Z,10.9
2022-11-13T16:34:26.087Z,10.9
2022-11-13T16:35:43.091Z,11
2022-11-13T16:37:00.097Z,11.1
2022-11-13T16:38:17.059Z,11.3
2022-11-13T16:39:34.061Z,11.4
2022-11-13T16:40:51.115Z,11.5
2022-11-13T16:42:08.060Z,11.6
2022-11-13T16:43:25.132Z,11.7
2022-11-13T16:44:42.098Z,11.7
2022-11-13T16:45:59.163Z,11.8
2022-11-13T16:47:16.068Z,11.8
2022-11-13T16:48:33.194Z,11.8
2022-11-13T16:49:50.084Z,11.9
2022-11-13T16:51:07.072Z,11.9
2022-11-13T16:52:24.104Z,11.9
2022-11-13T16:53:41.118Z,11.9
2022-11-13T16:55:01.046Z,12
2022-11-13T16:56:15.110Z,11.9
2022-11-13T16:57:32.108Z,11.8
2022-11-13T16:58:49.118Z,11.7
2022-11-13T17:00:06.158Z,11.6
2022-11-13T17:01:23.204Z,11.5
2022-11-13T17:02:40.283Z,11.6
2022-11-13T17:03:57.255Z,11.6
2022-11-13T17:05:14.116Z,11.6
2022-11-13T17:06:31.143Z,11.6
2022-11-13T17:07:48.119Z,11.6
2022-11-13T17:09:05.130Z,11.4
2022-11-13T17:10:31.162Z,11.3
2022-11-13T17:11:39.127Z,11.2
2022-11-13T17:12:56.125Z,11
2022-11-13T17:14:13.151Z,10.9
2022-11-13T17:15:30.208Z,10.9
2022-11-13T17:16:47.241Z,11
2022-11-13T17:18:04.107Z,11.1
2022-11-13T17:19:21.381Z,11.2
2022-11-13T17:20:38.148Z,11.2
2022-11-13T17:21:55.185Z,11.3
2022-11-13T17:23:12.133Z,11.4
2022-11-13T17:24:29.281Z,11.4
2022-11-13T17:25:46.122Z,11.5